createdAt,value
2022-09-20T00:01:13.801Z,7.70
2022-09-20T00:03:47.143Z,7.70
2022-09-20T00:06:21.593Z,7.70
2022-09-20T00:08:53.622Z,7.70
2022-09-20T00:11:31.226Z,7.70
2022-09-20T00:14:05.985Z,7.80
2022-09-20T00:16:40.806Z,7.80
2022-09-20T00:19:19.830Z,7.80
2022-09-20T00:21:51.517Z,7.80
2022-09-20T00:24:23.195Z,7.70
2022-09-20T00:26:55.187Z,7.70
2022-09-20T00:29:26.917Z,7.70
2022-09-20T00:31:58.689Z,7.70
2022-09-20T00:34:48.817Z,7.60
2022-09-20T00:37:20.514Z,7.60
2022-09-20T00:39:52.165Z,7.50
2022-09-20T00:42:28.882Z,7.50
2022-09-20T00:45:06.027Z,7.40
2022-09-20T00:47:47.743Z,7.40
2022-09-20T00:50:41.634Z,7.40
2022-09-20T00:53:21.498Z,7.40
2022-09-20T00:56:03.917Z,7.40
2022-09-20T00:58:40.194Z,7.40
2022-09-20T01:01:12.746Z,7.40
2022-09-20T01:03:45.524Z,7.40
2022-09-20T01:06:17.918Z,7.40
2022-09-20T01:08:52.055Z,7.40
2022-09-20T01:11:24.899Z,7.30
2022-09-20T01:13:57.486Z,7.30
2022-09-20T01:16:31.149Z,7.30
2022-09-20T01:19:15.357Z,7.20
2022-09-20T01:21:48.562Z,7.20
2022-09-20T01:24:33.454Z,7.20
2022-09-20T01:27:19.198Z,7.20
2022-09-20T01:30:07.714Z,7.20
2022-09-20T01:33:03.922Z,7.20
2022-09-20T01:35:36.694Z,7.20
2022-09-20T01:38:34.495Z,7.30
2022-09-20T01:41:30.446Z,7.30
2022-09-20T01:44:08.062Z,7.40
2022-09-20T01:46:42.881Z,7.40
2022-09-20T01:49:43.214Z,7.40
2022-09-20T01:52:21.049Z,7.50
2022-09-20T01:55:04.937Z,7.50
2022-09-20T01:57:57.266Z,7.60
2022-09-20T02:00:34.919Z,7.60
2022-09-20T02:03:28.422Z,7.70
2022-09-20T02:06:11.808Z,7.70
2022-09-20T02:09:11.639Z,7.70
2022-09-20T02:11:50.190Z,7.70
2022-09-20T02:14:41.788Z,7.60
2022-09-20T02:17:24.133Z,7.60
2022-09-20T02:20:15.944Z,7.50
2022-09-20T02:23:21.245Z,7.40
2022-09-20T02:26:11.099Z,7.30
2022-09-20T02:29:13.419Z,7.30
2022-09-20T02:31:57.175Z,7.20
2022-09-20T02:34:59.865Z,7.20
2022-09-20T02:37:55.819Z,7.20
2022-09-20T02:41:07.075Z,7.20
2022-09-20T02:43:54.240Z,7.20
2022-09-20T02:46:41.042Z,7.20
2022-09-20T02:49:18.513Z,7.20
2022-09-20T02:51:55.089Z,7.20
2022-09-20T02:54:58.638Z,7.20
2022-09-20T02:57:46.917Z,7.20
2022-09-20T03:00:28.871Z,7.10
2022-09-20T03:03:13.490Z,7.10
2022-09-20T03:06:19.666Z,7.10
2022-09-20T03:09:02.657Z,7.10
2022-09-20T03:12:19.065Z,7.10
2022-09-20T03:15:25.925Z,7.10
2022-09-20T03:18:15.267Z,7.20
2022-09-20T03:21:33.577Z,7.30
2022-09-20T03:24:24.817Z,7.40
2022-09-20T03:27:07.737Z,7.40
2022-09-20T03:30:16.082Z,7.50
2022-09-20T03:33:25.403Z,7.50
2022-09-20T03:36:15.157Z,7.50
2022-09-20T03:39:00.054Z,7.50
2022-09-20T03:41:40.938Z,7.50
2022-09-20T03:44:27.684Z,7.50
2022-09-20T03:47:27.202Z,7.50
2022-09-20T03:50:17.135Z,7.50
2022-09-20T03:53:07.915Z,7.40
2022-09-20T03:55:59.959Z,7.40
2022-09-20T03:58:44.319Z,7.40
2022-09-20T04:01:21.888Z,7.40
2022-09-20T04:04:16.671Z,7.40
2022-09-20T04:07:46.951Z,7.50
2022-09-20T04:10:46.941Z,7.50
2022-09-20T04:13:49.051Z,7.50
2022-09-20T04:16:46.081Z,7.60
2022-09-20T04:19:44.767Z,7.60
2022-09-20T04:22:18.753Z,7.70
2022-09-20T04:24:58.622Z,7.70
2022-09-20T04:27:41.335Z,7.70
2022-09-20T04:30:29.563Z,7.80
2022-09-20T04:33:33.511Z,7.80
2022-09-20T04:36:29.377Z,7.80
2022-09-20T04:39:16.047Z,7.90
2022-09-20T04:42:22.667Z,7.90
2022-09-20T04:45:05.264Z,7.90
2022-09-20T04:48:01.385Z,8.00
2022-09-20T04:50:36.044Z,8.00
2022-09-20T04:53:45.206Z,8.00
2022-09-20T04:56:44.802Z,8.00
2022-09-20T04:59:48.514Z,8.10
2022-09-20T05:02:50.469Z,8.10
2022-09-20T05:05:31.013Z,8.10
2022-09-20T05:08:21.313Z,8.10
2022-09-20T05:11:27.582Z,8.10
2022-09-20T05:14:24.688Z,8.10
2022-09-20T05:17:17.822Z,8.10
2022-09-20T05:20:24.206Z,8.10
2022-09-20T05:23:22.793Z,8.10
2022-09-20T05:26:08.119Z,8.10
2022-09-20T05:28:58.422Z,8.10
2022-09-20T05:32:05.101Z,8.10
2022-09-20T05:35:00.617Z,8.10
2022-09-20T05:37:32.332Z,8.10
2022-09-20T05:40:22.535Z,8.10
2022-09-20T05:43:26.366Z,8.10
2022-09-20T05:46:16.655Z,8.10
2022-09-20T05:49:07.010Z,8.10
2022-09-20T05:51:56.731Z,8.10
2022-09-20T05:54:43.458Z,8.20
2022-09-20T05:57:48.997Z,8.20
2022-09-20T06:00:27.865Z,8.20
2022-09-20T06:03:24.534Z,8.10
2022-09-20T06:06:08.097Z,8.20
2022-09-20T06:09:00.110Z,8.20
2022-09-20T06:11:54.032Z,8.30
2022-09-20T06:14:40.269Z,8.40
2022-09-20T06:17:30.867Z,8.50
2022-09-20T06:20:26.543Z,8.60
2022-09-20T06:23:01.069Z,8.70
2022-09-20T06:25:57.628Z,8.80
2022-09-20T06:28:40.393Z,8.90
2022-09-20T06:31:12.268Z,8.90
2022-09-20T06:34:08.962Z,8.90
2022-09-20T06:37:08.774Z,8.90
2022-09-20T06:40:13.868Z,9.00
2022-09-20T06:42:45.569Z,9.10
2022-09-20T06:45:17.290Z,9.20
2022-09-20T06:47:49.002Z,9.20
2022-09-20T06:50:20.842Z,9.30
2022-09-20T06:52:53.603Z,9.40
2022-09-20T06:55:32.146Z,9.50
2022-09-20T06:58:04.195Z,9.60
2022-09-20T07:00:36.739Z,9.60
2022-09-20T07:03:08.606Z,9.60
2022-09-20T07:05:40.661Z,9.60
2022-09-20T07:08:12.646Z,9.60
2022-09-20T07:10:45.095Z,9.70
2022-09-20T07:13:19.203Z,9.80
2022-09-20T07:15:51.157Z,9.90
2022-09-20T07:18:23.033Z,10.00
2022-09-20T07:20:55.674Z,10.10
2022-09-20T07:23:29.775Z,10.20
2022-09-20T07:26:01.557Z,10.20
2022-09-20T07:28:34.743Z,10.20
2022-09-20T07:31:06.495Z,10.20
2022-09-20T07:33:38.167Z,10.20
2022-09-20T07:36:12.343Z,10.20
2022-09-20T07:38:48.678Z,10.10
2022-09-20T07:41:22.925Z,10.10
2022-09-20T07:43:54.711Z,10.10
2022-09-20T07:46:26.491Z,10.20
2022-09-20T07:48:58.155Z,10.20
2022-09-20T07:51:29.810Z,10.20
2022-09-20T07:54:01.544Z,10.30
2022-09-20T07:56:33.307Z,10.30
2022-09-20T07:59:05.061Z,10.40
2022-09-20T08:01:38.082Z,10.50
2022-09-20T08:04:10.371Z,10.70
2022-09-20T08:06:45.985Z,11.00
2022-09-20T08:09:17.861Z,11.30
2022-09-20T08:11:50.155Z,11.50
2022-09-20T08:14:22.254Z,11.70
2022-09-20T08:16:54.724Z,11.70
2022-09-20T08:19:26.750Z,11.50
2022-09-20T08:21:58.523Z,11.40
2022-09-20T08:24:30.195Z,11.40
2022-09-20T08:27:02.558Z,11.50
2022-09-20T08:29:34.298Z,11.70
2022-09-20T08:32:06.199Z,11.80
2022-09-20T08:34:39.606Z,11.90
2022-09-20T08:37:11.267Z,12.00
2022-09-20T08:39:58.987Z,12.20
2022-09-20T08:42:43.767Z,12.50
2022-09-20T08:45:22.692Z,12.30
2022-09-20T08:48:14.193Z,12.00
2022-09-20T08:50:46.218Z,12.00
2022-09-20T08:53:21.312Z,12.00
2022-09-20T08:55:53.284Z,12.20
2022-09-20T08:58:27.264Z,12.50
2022-09-20T09:01:00.097Z,13.00
2022-09-20T09:03:33.593Z,13.20
2022-09-20T09:06:10.353Z,13.40
2022-09-20T09:08:44.628Z,13.20
2022-09-20T09:11:18.838Z,13.30
2022-09-20T09:13:53.626Z,13.20
2022-09-20T09:16:34.707Z,13.30
2022-09-20T09:19:43.757Z,13.80
2022-09-20T09:22:36.861Z,15.20
2022-09-20T09:25:22.173Z,16.40
2022-09-20T09:28:03.667Z,16.40
2022-09-20T09:30:38.390Z,17.10
2022-09-20T09:33:24.977Z,17.40
2022-09-20T09:36:04.051Z,16.60
2022-09-20T09:38:41.481Z,15.90
2022-09-20T09:41:26.330Z,15.20
2022-09-20T09:44:19.190Z,14.70
2022-09-20T09:46:53.488Z,14.20
2022-09-20T09:49:36.113Z,13.80
2022-09-20T09:52:26.098Z,13.40
2022-09-20T09:55:03.219Z,13.30
2022-09-20T09:57:56.029Z,13.10
2022-09-20T10:00:31.383Z,13.80
2022-09-20T10:03:19.514Z,14.60
2022-09-20T10:06:18.581Z,14.90
2022-09-20T10:09:17.984Z,15.20
2022-09-20T10:12:07.645Z,16.40
2022-09-20T10:15:07.173Z,17.60
2022-09-20T10:18:00.952Z,18.30
2022-09-20T10:20:53.154Z,17.50
2022-09-20T10:26:43.848Z,15.70
2022-09-20T10:29:31.343Z,17.10
2022-09-20T10:32:27.478Z,19.00
2022-09-20T10:35:33.807Z,18.50
2022-09-20T10:38:23.440Z,17.60
2022-09-20T10:41:22.222Z,16.50
2022-09-20T10:44:09.268Z,15.70
2022-09-20T10:47:06.782Z,14.90
2022-09-20T10:50:09.078Z,14.40
2022-09-20T10:52:56.100Z,15.30
2022-09-20T10:55:52.028Z,16.90
2022-09-20T10:58:46.201Z,18.10
2022-09-20T11:01:20.924Z,18.90
2022-09-20T11:04:31.046Z,18.70
2022-09-20T11:07:23.083Z,17.90
2022-09-20T11:10:03.304Z,16.60
2022-09-20T11:12:42.478Z,15.70
2022-09-20T11:15:35.460Z,15.00
2022-09-20T11:18:23.386Z,14.60
2022-09-20T11:21:23.397Z,14.50
2022-09-20T11:24:05.243Z,14.50
2022-09-20T11:26:48.077Z,14.60
2022-09-20T11:29:45.147Z,14.60
2022-09-20T11:32:46.489Z,14.30
2022-09-20T11:35:25.082Z,14.20
2022-09-20T11:38:13.439Z,14.20
2022-09-20T11:40:57.907Z,14.50
2022-09-20T11:43:31.877Z,14.80
2022-09-20T11:46:08.150Z,15.00
2022-09-20T11:48:46.796Z,15.10
2022-09-20T11:51:56.090Z,15.10
2022-09-20T11:55:10.769Z,15.30
2022-09-20T11:57:42.613Z,15.20
2022-09-20T12:00:15.052Z,15.00
2022-09-20T12:02:48.770Z,15.00
2022-09-20T12:05:35.850Z,15.00
2022-09-20T12:08:20.694Z,15.00
2022-09-20T12:11:12.177Z,14.90
2022-09-20T12:13:55.440Z,14.80
2022-09-20T12:16:48.052Z,14.70
2022-09-20T12:19:36.332Z,14.70
2022-09-20T12:22:08.094Z,14.80
2022-09-20T12:24:45.104Z,14.80
2022-09-20T12:27:29.548Z,14.80
2022-09-20T12:30:16.794Z,14.70
2022-09-20T12:32:55.050Z,14.50
2022-09-20T12:35:36.057Z,14.30
2022-09-20T12:38:27.555Z,14.20
2022-09-20T12:41:11.479Z,14.20
2022-09-20T12:43:57.461Z,14.40
2022-09-20T12:46:33.848Z,14.60
2022-09-20T12:49:41.581Z,14.80
2022-09-20T12:52:45.342Z,14.80
2022-09-20T12:55:40.560Z,14.80
2022-09-20T12:58:13.977Z,15.00
2022-09-20T13:01:00.732Z,15.00
2022-09-20T13:03:37.507Z,15.00
2022-09-20T13:06:10.899Z,14.70
2022-09-20T13:09:00.673Z,14.70
2022-09-20T13:12:01.221Z,14.50
2022-09-20T13:14:34.823Z,14.60
2022-09-20T13:17:13.540Z,14.70
2022-09-20T13:19:47.823Z,14.80
2022-09-20T13:22:33.111Z,14.60
2022-09-20T13:25:07.095Z,14.70
2022-09-20T13:27:45.097Z,14.90
2022-09-20T13:30:31.184Z,14.80
2022-09-20T13:33:16.528Z,15.00
2022-09-20T13:35:52.418Z,15.10
2022-09-20T13:38:27.838Z,15.20
2022-09-20T13:41:07.231Z,15.30
2022-09-20T13:43:41.517Z,15.30
2022-09-20T13:46:18.584Z,15.20
2022-09-20T13:48:59.615Z,14.90
2022-09-20T13:51:34.747Z,14.80
2022-09-20T13:54:28.319Z,14.80
2022-09-20T13:57:06.718Z,14.80
2022-09-20T13:59:45.365Z,15.00
2022-09-20T14:02:30.515Z,14.90
2022-09-20T14:05:05.307Z,14.80
2022-09-20T14:07:37.027Z,14.90
2022-09-20T14:10:42.941Z,14.90
2022-09-20T14:13:17.205Z,14.60
2022-09-20T14:15:49.670Z,14.50
2022-09-20T14:18:22.431Z,14.30
2022-09-20T14:20:55.412Z,14.10
2022-09-20T14:23:29.187Z,14.00
2022-09-20T14:26:16.070Z,14.00
2022-09-20T14:28:48.114Z,13.80
2022-09-20T14:31:27.233Z,13.70
2022-09-20T14:34:02.522Z,13.70
2022-09-20T14:36:34.250Z,13.60
2022-09-20T14:39:14.899Z,13.70
2022-09-20T14:41:47.106Z,13.70
2022-09-20T14:44:30.098Z,13.60
2022-09-20T14:47:14.585Z,13.60
2022-09-20T14:49:46.335Z,13.60
2022-09-20T14:52:26.822Z,13.60
2022-09-20T14:55:13.842Z,13.60
2022-09-20T14:57:47.034Z,13.70
2022-09-20T15:00:20.644Z,13.80
2022-09-20T15:02:53.051Z,13.80
2022-09-20T15:05:26.700Z,13.80
2022-09-20T15:07:59.427Z,13.80
2022-09-20T15:10:31.194Z,13.90
2022-09-20T15:13:02.958Z,13.90
2022-09-20T15:15:34.714Z,13.90
2022-09-20T15:18:20.293Z,13.90
2022-09-20T15:20:53.893Z,13.80
2022-09-20T15:23:25.559Z,13.80
2022-09-20T15:25:57.319Z,13.70
2022-09-20T15:28:29.155Z,13.60
2022-09-20T15:31:01.122Z,13.60
2022-09-20T15:33:33.559Z,13.50
2022-09-20T15:36:05.749Z,13.40
2022-09-20T15:38:37.492Z,13.30
2022-09-20T15:41:10.042Z,13.20
2022-09-20T15:43:43.270Z,13.10
2022-09-20T15:46:22.963Z,12.90
2022-09-20T15:48:56.289Z,12.80
2022-09-20T15:51:29.457Z,12.80
2022-09-20T15:54:06.146Z,12.70
2022-09-20T15:56:40.140Z,12.70
2022-09-20T15:59:13.282Z,12.70
2022-09-20T16:01:47.732Z,12.80
2022-09-20T16:04:20.612Z,12.80
2022-09-20T16:06:52.594Z,12.80
2022-09-20T16:09:24.270Z,12.90
2022-09-20T16:11:58.806Z,12.90
2022-09-20T16:14:31.303Z,12.90
2022-09-20T16:17:03.005Z,12.80
2022-09-20T16:19:35.673Z,12.70
2022-09-20T16:22:07.746Z,12.50
2022-09-20T16:24:39.424Z,12.40
2022-09-20T16:27:11.083Z,12.40
2022-09-20T16:29:42.737Z,12.30
2022-09-20T16:32:14.610Z,12.20
2022-09-20T16:34:46.345Z,12.20
2022-09-20T16:37:18.943Z,12.10
2022-09-20T16:39:50.658Z,12.00
2022-09-20T16:42:23.553Z,12.00
2022-09-20T16:44:55.326Z,11.90
2022-09-20T16:47:27.174Z,11.90
2022-09-20T16:49:58.864Z,11.80
2022-09-20T16:52:30.557Z,11.80
2022-09-20T16:55:03.091Z,11.70
2022-09-20T16:57:36.772Z,11.70
2022-09-20T17:00:11.710Z,11.70
2022-09-20T17:02:47.761Z,11.70
2022-09-20T17:05:19.754Z,11.70
2022-09-20T17:07:51.461Z,11.60
2022-09-20T17:10:24.397Z,11.60
2022-09-20T17:12:59.516Z,11.50
2022-09-20T17:15:31.190Z,11.50
2022-09-20T17:18:05.418Z,11.40
2022-09-20T17:20:39.250Z,11.40
2022-09-20T17:23:10.985Z,11.30
2022-09-20T17:25:46.210Z,11.30
2022-09-20T17:28:18.095Z,11.20
2022-09-20T17:30:49.848Z,11.20
2022-09-20T17:33:21.517Z,11.20
2022-09-20T17:35:53.165Z,11.10
2022-09-20T17:38:24.944Z,11.00
2022-09-20T17:41:00.734Z,10.90
2022-09-20T17:43:33.388Z,10.80
2022-09-20T17:46:13.930Z,10.70
2022-09-20T17:48:49.004Z,10.70
2022-09-20T17:51:21.398Z,10.60
2022-09-20T17:53:55.670Z,10.50
2022-09-20T17:56:31.153Z,10.40
2022-09-20T17:59:05.281Z,10.40
2022-09-20T18:01:37.966Z,10.40
2022-09-20T18:04:10.115Z,10.40
2022-09-20T18:06:46.133Z,10.30
2022-09-20T18:09:28.168Z,10.30
2022-09-20T18:11:59.844Z,10.30
2022-09-20T18:14:32.537Z,10.30
2022-09-20T18:17:05.321Z,10.30
2022-09-20T18:19:37.066Z,10.30
2022-09-20T18:22:08.715Z,10.30
2022-09-20T18:24:40.377Z,10.20
2022-09-20T18:27:13.311Z,10.20
2022-09-20T18:29:45.017Z,10.20
2022-09-20T18:32:17.077Z,10.20
2022-09-20T18:34:51.201Z,10.10
2022-09-20T18:37:22.854Z,10.20
2022-09-20T18:39:54.590Z,10.10
2022-09-20T18:42:26.365Z,10.10
2022-09-20T18:44:59.139Z,10.10
2022-09-20T18:47:31.892Z,10.10
2022-09-20T18:50:03.833Z,10.00
2022-09-20T18:52:35.734Z,10.00
2022-09-20T18:55:07.906Z,9.90
2022-09-20T18:57:39.761Z,9.90
2022-09-20T19:00:12.646Z,9.90
2022-09-20T19:03:10.761Z,9.80
2022-09-20T19:05:50.757Z,9.80
2022-09-20T19:08:34.204Z,9.80
2022-09-20T19:11:11.882Z,9.80
2022-09-20T19:13:52.125Z,9.80
2022-09-20T19:16:34.376Z,9.80
2022-09-20T19:19:18.087Z,9.80
2022-09-20T19:22:04.814Z,9.70
2022-09-20T19:25:04.823Z,9.70
2022-09-20T19:27:36.856Z,9.70
2022-09-20T19:30:13.365Z,9.70
2022-09-20T19:32:45.616Z,9.70
2022-09-20T19:35:28.386Z,9.70
2022-09-20T19:38:23.797Z,9.70
2022-09-20T19:41:18.047Z,9.70
2022-09-20T19:44:15.106Z,9.70
2022-09-20T19:46:50.908Z,9.80
2022-09-20T19:49:48.685Z,9.70
2022-09-20T19:52:21.665Z,9.70
2022-09-20T19:54:53.754Z,9.70
2022-09-20T19:57:47.083Z,9.70
2022-09-20T20:00:20.647Z,9.70
2022-09-20T20:02:53.858Z,9.70
2022-09-20T20:05:27.579Z,9.70
2022-09-20T20:08:11.281Z,9.70
2022-09-20T20:11:19.481Z,9.60
2022-09-20T20:14:03.315Z,9.60
2022-09-20T20:16:53.880Z,9.60
2022-09-20T20:19:48.539Z,9.50
2022-09-20T20:22:40.930Z,9.40
2022-09-20T20:25:48.822Z,9.40
2022-09-20T20:28:20.503Z,9.40
2022-09-20T20:30:53.905Z,9.40
2022-09-20T20:33:28.892Z,9.40
2022-09-20T20:36:02.205Z,9.30
2022-09-20T20:38:37.556Z,9.30
2022-09-20T20:41:13.639Z,9.30
2022-09-20T20:43:47.132Z,9.30
2022-09-20T20:46:18.961Z,9.20
2022-09-20T20:48:50.794Z,9.20
2022-09-20T20:51:22.961Z,9.20
2022-09-20T20:53:55.371Z,9.20
2022-09-20T20:56:31.278Z,9.20
2022-09-20T20:59:04.307Z,9.10
2022-09-20T21:01:44.693Z,9.10
2022-09-20T21:04:18.129Z,9.10
2022-09-20T21:06:50.392Z,9.10
2022-09-20T21:09:22.251Z,9.10
2022-09-20T21:11:53.941Z,9.00
2022-09-20T21:14:25.635Z,9.00
2022-09-20T21:16:57.295Z,9.00
2022-09-20T21:19:28.999Z,9.00
2022-09-20T21:22:00.704Z,8.90
2022-09-20T21:24:32.384Z,8.90
2022-09-20T21:27:04.679Z,8.90
2022-09-20T21:29:36.806Z,8.90
2022-09-20T21:32:08.476Z,8.80
2022-09-20T21:34:40.221Z,8.80
2022-09-20T21:37:12.095Z,8.80
2022-09-20T21:39:43.750Z,8.70
2022-09-20T21:42:17.066Z,8.70
2022-09-20T21:44:48.762Z,8.70
2022-09-20T21:47:20.522Z,8.60
2022-09-20T21:49:52.537Z,8.60
2022-09-20T21:52:24.268Z,8.50
2022-09-20T21:54:55.959Z,8.50
2022-09-20T21:57:27.787Z,8.50
2022-09-20T21:59:59.533Z,8.40
2022-09-20T22:02:31.714Z,8.30
2022-09-20T22:05:03.554Z,8.30
2022-09-20T22:07:35.226Z,8.20
2022-09-20T22:10:07.465Z,8.20
2022-09-20T22:12:39.209Z,8.20
2022-09-20T22:15:11.113Z,8.10
2022-09-20T22:17:45.911Z,8.10
2022-09-20T22:20:17.586Z,8.00
2022-09-20T22:22:49.234Z,7.90
2022-09-20T22:25:20.911Z,7.90
2022-09-20T22:27:52.564Z,7.90
2022-09-20T22:30:24.262Z,7.80
2022-09-20T22:32:56.002Z,7.80
2022-09-20T22:35:27.655Z,7.80
2022-09-20T22:37:59.400Z,7.70
2022-09-20T22:40:31.169Z,7.70
2022-09-20T22:43:02.892Z,7.60
2022-09-20T22:45:34.892Z,7.60
2022-09-20T22:48:06.550Z,7.60
2022-09-20T22:50:38.267Z,7.60
2022-09-20T22:53:10.174Z,7.60
2022-09-20T22:55:41.892Z,7.60
2022-09-20T22:58:13.557Z,7.60
2022-09-20T23:00:45.674Z,7.50
2022-09-20T23:03:17.420Z,7.50
2022-09-20T23:05:49.158Z,7.50
2022-09-20T23:08:22.388Z,7.40
2022-09-20T23:11:04.832Z,7.40
2022-09-20T23:13:36.582Z,7.40
2022-09-20T23:16:15.586Z,7.40
2022-09-20T23:18:48.666Z,7.40
2022-09-20T23:21:21.038Z,7.40
2022-09-20T23:23:55.170Z,7.40
2022-09-20T23:26:29.737Z,7.40
2022-09-20T23:29:06.270Z,7.40
2022-09-20T23:31:40.163Z,7.30
2022-09-20T23:34:12.969Z,7.30
2022-09-20T23:36:45.942Z,7.30
2022-09-20T23:39:17.662Z,7.30
2022-09-20T23:41:51.268Z,7.30
2022-09-20T23:44:23.243Z,7.30
2022-09-20T23:46:54.919Z,7.30
2022-09-20T23:49:27.470Z,7.30
2022-09-20T23:51:59.219Z,7.20
2022-09-20T23:54:30.996Z,7.20
2022-09-20T23:57:02.723Z,7.20
2022-09-20T23:59:34.619Z,7.20
